Charlotte, NC (28209)

7:34 PM EST on February 08, 2016 (GMT -0500)
Park Rd Shopping Ctr (Ashbrook) | | Change Station
CLOSE
Current Station
Personal Weather Station
Location: Charlotte, NC
Elevation: 679 ft
Nearby Weather Stations

Elev 679 ft 35.18 °N, 80.85 °W | Updated 34 seconds ago

Partly Cloudy
Partly Cloudy
39.4 °F
Feels Like 39 °F
N
0.0
Wind Variable Wind from East
Gusts 0.0 mph

Today
High -- | Low -- °F
--% Chance of Precip.
Yesterday
High -- | Low -- °F
Precip. -- in
Pressure 29.67 in
Visibility 10.0 miles
Clouds Few 6000 ft
Scattered Clouds 11000 ft
Windchill 39 °F
Dew Point 36 °F
Humidity 88%
Rainfall 0.00 in
Snow Depth Not available.
7:17 AM 5:58 PM
New Moon, 0% visible
METAR KCLT 082352Z 20004KT 10SM FEW060 SCT110 07/M01 A2966 RMK AO2 SLP047 60001 T00671006 10106 20044 50006
Pressure 29.67 in
Visibility 10.0 miles
Clouds Few 6000 ft
Scattered Clouds 11000 ft
Windchill 39 °F
Dew Point 36 °F
Humidity 88%
Rainfall 0.00 in
Snow Depth Not available.
7:17 AM 5:58 PM
New Moon, 0% visible
METAR KCLT 082352Z 20004KT 10SM FEW060 SCT110 07/M01 A2966 RMK AO2 SLP047 60001 T00671006 10106 20044 50006

10-Day Weather Forecast

Almanac

Astronomy

Feb. 08, 2016 Rise Set
Actual Time
Civil Twilight
Nautical Twilight
Astronomical Twilight
Moon
Length of Visible Light
Length of Day
Tomorrow will be .
, % of the Moon is Illuminated

Today's Extremes

State Highs State Lows

Community

WunderPhotos

Upload Photos

1,891,527 photos uploaded!

WunderBlog® & News

Nearby

Air Quality

  Air Quality AQ Index Pollutant
Not available.

Snow Depth

Station Depth Elevation

Earthquake Activity

City Distance Mag. Time & Date
Minimum magnitude displayed is 2.5.

Coastal Water Temperatures

Place Temperature

Stations

Nearby Weather Stations

Station Location Temp. Windchill Dew Point Humidity Wind Precip. Elev Updated Type
                   

Watches & Warnings

There are currently no watches in effect.